sensor_id;sensor_type;location;lat;lon;timestamp;noise_LAeq;noise_LA_min;noise_LA_max;noise_LA01;noise_LA95
40103;Laerm;25814;48.550;9.108;2023-05-10T00:01:39;35.65;32.83;48.50;;
40103;Laerm;25814;48.550;9.108;2023-05-10T00:04:05;34.95;32.96;41.34;;
40103;Laerm;25814;48.550;9.108;2023-05-10T00:06:32;35.41;32.79;48.38;;
40103;Laerm;25814;48.550;9.108;2023-05-10T00:08:58;34.64;32.86;46.41;;
40103;Laerm;25814;48.550;9.108;2023-05-10T00:11:24;35.63;33.13;50.71;;
40103;Laerm;25814;48.550;9.108;2023-05-10T00:13:51;35.39;32.70;50.82;;
40103;Laerm;25814;48.550;9.108;2023-05-10T00:16:17;34.23;32.12;46.19;;
40103;Laerm;25814;48.550;9.108;2023-05-10T00:18:43;35.41;32.57;43.21;;
40103;Laerm;25814;48.550;9.108;2023-05-10T00:21:09;45.01;36.90;52.23;;
40103;Laerm;25814;48.550;9.108;2023-05-10T00:23:36;46.31;40.39;53.80;;
40103;Laerm;25814;48.550;9.108;2023-05-10T00:26:03;41.90;37.07;51.98;;
40103;Laerm;25814;48.550;9.108;2023-05-10T00:28:29;40.40;36.70;51.45;;
40103;Laerm;25814;48.550;9.108;2023-05-10T00:30:55;38.88;35.73;49.56;;
40103;Laerm;25814;48.550;9.108;2023-05-10T00:33:22;42.42;35.24;53.88;;
40103;Laerm;25814;48.550;9.108;2023-05-10T00:35:48;34.82;32.65;48.06;;
40103;Laerm;25814;48.550;9.108;2023-05-10T00:38:14;34.51;31.62;42.80;;
40103;Laerm;25814;48.550;9.108;2023-05-10T00:40:41;33.02;31.20;42.16;;
40103;Laerm;25814;48.550;9.108;2023-05-10T00:43:07;33.62;30.88;41.95;;
40103;Laerm;25814;48.550;9.108;2023-05-10T00:45:35;33.09;30.74;47.20;;
40103;Laerm;25814;48.550;9.108;2023-05-10T00:48:02;32.73;30.80;47.26;;
40103;Laerm;25814;48.550;9.108;2023-05-10T00:50:30;32.02;30.64;39.89;;
40103;Laerm;25814;48.550;9.108;2023-05-10T00:52:59;32.11;30.46;43.67;;
40103;Laerm;25814;48.550;9.108;2023-05-10T00:55:26;32.38;30.48;40.92;;
40103;Laerm;25814;48.550;9.108;2023-05-10T00:57:53;31.78;30.41;40.96;;
40103;Laerm;25814;48.550;9.108;2023-05-10T01:00:20;33.30;31.73;39.88;;
40103;Laerm;25814;48.550;9.108;2023-05-10T01:02:46;31.86;30.24;41.52;;
40103;Laerm;25814;48.550;9.108;2023-05-10T01:05:13;31.46;30.26;38.54;;
40103;Laerm;25814;48.550;9.108;2023-05-10T01:07:39;31.39;30.39;34.72;;
40103;Laerm;25814;48.550;9.108;2023-05-10T01:10:08;31.39;30.19;41.31;;
40103;Laerm;25814;48.550;9.108;2023-05-10T01:12:39;31.47;30.26;45.93;;
40103;Laerm;25814;48.550;9.108;2023-05-10T01:15:11;31.31;30.22;35.68;;
40103;Laerm;25814;48.550;9.108;2023-05-10T01:17:40;31.38;30.15;41.15;;
40103;Laerm;25814;48.550;9.108;2023-05-10T01:20:10;34.21;30.10;46.06;;
40103;Laerm;25814;48.550;9.108;2023-05-10T01:23:27;31.27;30.10;38.20;;
40103;Laerm;25814;48.550;9.108;2023-05-10T01:26:11;32.16;30.29;50.73;;
40103;Laerm;25814;48.550;9.108;2023-05-10T01:34:42;31.57;30.41;37.39;;
40103;Laerm;25814;48.550;9.108;2023-05-10T01:37:23;31.61;30.42;45.59;;
40103;Laerm;25814;48.550;9.108;2023-05-10T01:42:51;32.50;30.31;42.23;;
40103;Laerm;25814;48.550;9.108;2023-05-10T01:45:33;31.92;30.47;35.21;;
40103;Laerm;25814;48.550;9.108;2023-05-10T01:48:10;31.54;30.34;38.10;;
40103;Laerm;25814;48.550;9.108;2023-05-10T01:50:41;31.67;30.36;46.42;;
40103;Laerm;25814;48.550;9.108;2023-05-10T01:53:12;31.60;30.24;35.87;;
40103;Laerm;25814;48.550;9.108;2023-05-10T01:55:46;31.40;30.28;42.34;;
40103;Laerm;25814;48.550;9.108;2023-05-10T01:58:35;31.16;30.12;39.68;;
40103;Laerm;25814;48.550;9.108;2023-05-10T02:01:04;31.25;30.12;35.08;;
40103;Laerm;25814;48.550;9.108;2023-05-10T02:03:34;31.13;29.97;34.62;;
40103;Laerm;25814;48.550;9.108;2023-05-10T02:06:03;31.22;30.23;35.16;;
40103;Laerm;25814;48.550;9.108;2023-05-10T02:08:33;31.36;30.25;38.02;;
40103;Laerm;25814;48.550;9.108;2023-05-10T02:11:03;31.34;30.24;36.85;;
40103;Laerm;25814;48.550;9.108;2023-05-10T02:13:34;31.30;30.06;38.32;;
40103;Laerm;25814;48.550;9.108;2023-05-10T02:16:05;31.10;30.04;37.36;;
40103;Laerm;25814;48.550;9.108;2023-05-10T02:18:34;31.32;30.27;43.60;;
40103;Laerm;25814;48.550;9.108;2023-05-10T02:21:02;31.17;30.17;34.60;;
40103;Laerm;25814;48.550;9.108;2023-05-10T02:23:30;31.27;30.27;35.59;;
40103;Laerm;25814;48.550;9.108;2023-05-10T02:25:58;31.32;30.27;35.11;;
40103;Laerm;25814;48.550;9.108;2023-05-10T02:28:28;32.74;30.57;42.91;;
40103;Laerm;25814;48.550;9.108;2023-05-10T02:30:56;33.21;30.66;40.16;;
40103;Laerm;25814;48.550;9.108;2023-05-10T02:33:24;32.43;30.54;36.68;;
40103;Laerm;25814;48.550;9.108;2023-05-10T02:35:51;31.72;30.54;46.61;;
40103;Laerm;25814;48.550;9.108;2023-05-10T02:38:20;31.87;30.44;37.73;;
40103;Laerm;25814;48.550;9.108;2023-05-10T02:40:48;31.73;30.34;36.41;;
40103;Laerm;25814;48.550;9.108;2023-05-10T02:43:17;32.39;30.19;38.55;;
40103;Laerm;25814;48.550;9.108;2023-05-10T02:45:47;33.57;30.82;39.45;;
40103;Laerm;25814;48.550;9.108;2023-05-10T02:48:14;32.50;30.74;38.12;;
40103;Laerm;25814;48.550;9.108;2023-05-10T02:50:44;33.23;30.58;43.67;;
40103;Laerm;25814;48.550;9.108;2023-05-10T02:53:17;33.46;30.82;45.72;;
40103;Laerm;25814;48.550;9.108;2023-05-10T02:55:50;32.57;30.81;39.29;;
40103;Laerm;25814;48.550;9.108;2023-05-10T02:58:17;33.22;30.86;40.98;;
40103;Laerm;25814;48.550;9.108;2023-05-10T03:00:46;41.26;31.18;54.92;;
40103;Laerm;25814;48.550;9.108;2023-05-10T03:03:13;44.22;31.43;58.34;;
40103;Laerm;25814;48.550;9.108;2023-05-10T03:05:39;44.74;31.44;57.72;;
40103;Laerm;25814;48.550;9.108;2023-05-10T03:08:05;49.48;32.43;66.35;;
40103;Laerm;25814;48.550;9.108;2023-05-10T03:10:32;50.87;33.92;62.74;;
40103;Laerm;25814;48.550;9.108;2023-05-10T03:13:32;48.87;32.39;62.89;;
40103;Laerm;25814;48.550;9.108;2023-05-10T03:16:07;50.31;34.03;64.83;;
40103;Laerm;25814;48.550;9.108;2023-05-10T03:18:51;49.72;33.39;64.38;;
40103;Laerm;25814;48.550;9.108;2023-05-10T03:21:22;49.24;34.86;64.60;;
40103;Laerm;25814;48.550;9.108;2023-05-10T03:23:59;52.92;35.44;64.73;;
40103;Laerm;25814;48.550;9.108;2023-05-10T03:26:27;49.68;33.18;59.98;;
40103;Laerm;25814;48.550;9.108;2023-05-10T03:28:55;51.57;32.81;64.58;;
40103;Laerm;25814;48.550;9.108;2023-05-10T03:31:22;53.01;33.28;63.48;;
40103;Laerm;25814;48.550;9.108;2023-05-10T03:33:49;54.31;32.82;65.30;;
40103;Laerm;25814;48.550;9.108;2023-05-10T03:36:15;53.26;33.87;62.21;;
40103;Laerm;25814;48.550;9.108;2023-05-10T03:38:42;51.01;33.38;61.13;;
40103;Laerm;25814;48.550;9.108;2023-05-10T03:41:08;52.16;33.93;65.03;;
40103;Laerm;25814;48.550;9.108;2023-05-10T03:43:34;53.07;35.57;65.51;;
40103;Laerm;25814;48.550;9.108;2023-05-10T03:46:04;53.12;36.02;64.41;;
40103;Laerm;25814;48.550;9.108;2023-05-10T03:48:33;49.93;33.90;60.96;;
40103;Laerm;25814;48.550;9.108;2023-05-10T03:50:59;55.39;34.19;72.48;;
40103;Laerm;25814;48.550;9.108;2023-05-10T03:53:25;55.10;32.77;70.61;;
40103;Laerm;25814;48.550;9.108;2023-05-10T03:55:52;49.85;32.63;66.79;;
40103;Laerm;25814;48.550;9.108;2023-05-10T03:58:18;51.90;32.59;68.37;;
40103;Laerm;25814;48.550;9.108;2023-05-10T04:00:45;49.98;33.90;66.03;;
40103;Laerm;25814;48.550;9.108;2023-05-10T04:03:12;44.99;41.40;53.43;;
40103;Laerm;25814;48.550;9.108;2023-05-10T04:05:38;42.58;39.62;53.60;;
40103;Laerm;25814;48.550;9.108;2023-05-10T04:08:05;39.65;36.35;50.65;;
40103;Laerm;25814;48.550;9.108;2023-05-10T04:10:32;38.51;34.36;49.24;;
40103;Laerm;25814;48.550;9.108;2023-05-10T04:12:58;40.08;33.88;50.78;;
40103;Laerm;25814;48.550;9.108;2023-05-10T04:15:24;43.36;33.63;55.53;;
40103;Laerm;25814;48.550;9.108;2023-05-10T04:17:50;44.06;33.34;57.71;;
40103;Laerm;25814;48.550;9.108;2023-05-10T04:20:16;49.46;33.21;62.89;;
40103;Laerm;25814;48.550;9.108;2023-05-10T04:22:43;48.62;32.66;59.63;;
40103;Laerm;25814;48.550;9.108;2023-05-10T04:25:09;49.29;33.37;61.63;;
40103;Laerm;25814;48.550;9.108;2023-05-10T04:27:36;51.35;33.43;62.63;;
40103;Laerm;25814;48.550;9.108;2023-05-10T04:30:02;53.90;32.88;64.64;;
40103;Laerm;25814;48.550;9.108;2023-05-10T04:32:28;46.52;33.17;63.12;;
40103;Laerm;25814;48.550;9.108;2023-05-10T04:34:55;41.93;33.57;55.76;;
40103;Laerm;25814;48.550;9.108;2023-05-10T04:37:21;42.70;34.23;55.02;;
40103;Laerm;25814;48.550;9.108;2023-05-10T04:39:48;41.63;33.72;54.96;;
40103;Laerm;25814;48.550;9.108;2023-05-10T04:42:14;40.52;33.49;54.67;;
40103;Laerm;25814;48.550;9.108;2023-05-10T04:44:41;38.96;33.50;49.50;;
40103;Laerm;25814;48.550;9.108;2023-05-10T04:47:07;40.88;33.33;55.02;;
40103;Laerm;25814;48.550;9.108;2023-05-10T04:49:34;46.30;34.49;61.68;;
40103;Laerm;25814;48.550;9.108;2023-05-10T04:52:00;45.62;32.92;57.81;;
40103;Laerm;25814;48.550;9.108;2023-05-10T04:54:26;47.34;33.04;64.25;;
40103;Laerm;25814;48.550;9.108;2023-05-10T04:56:52;46.15;33.07;62.18;;
40103;Laerm;25814;48.550;9.108;2023-05-10T04:59:18;55.15;33.05;72.55;;
40103;Laerm;25814;48.550;9.108;2023-05-10T05:01:45;50.24;33.99;67.13;;
40103;Laerm;25814;48.550;9.108;2023-05-10T05:04:11;40.03;37.69;48.95;;
40103;Laerm;25814;48.550;9.108;2023-05-10T05:06:37;41.63;37.82;58.95;;
40103;Laerm;25814;48.550;9.108;2023-05-10T05:09:03;42.90;33.31;56.78;;
40103;Laerm;25814;48.550;9.108;2023-05-10T05:11:30;37.47;33.80;46.73;;
40103;Laerm;25814;48.550;9.108;2023-05-10T05:13:56;38.23;32.78;48.00;;
40103;Laerm;25814;48.550;9.108;2023-05-10T05:16:24;37.79;33.32;52.50;;
40103;Laerm;25814;48.550;9.108;2023-05-10T05:18:51;40.89;33.07;58.79;;
40103;Laerm;25814;48.550;9.108;2023-05-10T05:21:19;41.57;33.19;57.99;;
40103;Laerm;25814;48.550;9.108;2023-05-10T05:23:46;38.76;34.08;49.88;;
40103;Laerm;25814;48.550;9.108;2023-05-10T05:26:12;44.76;35.02;59.68;;
40103;Laerm;25814;48.550;9.108;2023-05-10T05:28:38;40.13;33.93;57.26;;
40103;Laerm;25814;48.550;9.108;2023-05-10T05:31:08;53.81;34.08;72.32;;
40103;Laerm;25814;48.550;9.108;2023-05-10T05:33:34;36.88;33.82;45.44;;
40103;Laerm;25814;48.550;9.108;2023-05-10T05:36:05;37.05;33.08;48.03;;
40103;Laerm;25814;48.550;9.108;2023-05-10T05:38:31;38.56;33.41;55.42;;
40103;Laerm;25814;48.550;9.108;2023-05-10T05:40:57;45.03;33.71;62.54;;
40103;Laerm;25814;48.550;9.108;2023-05-10T05:43:24;41.80;34.09;59.53;;
40103;Laerm;25814;48.550;9.108;2023-05-10T05:45:52;40.62;34.03;57.49;;
40103;Laerm;25814;48.550;9.108;2023-05-10T05:48:19;47.64;41.18;53.86;;
40103;Laerm;25814;48.550;9.108;2023-05-10T05:50:45;42.50;34.97;58.42;;
40103;Laerm;25814;48.550;9.108;2023-05-10T05:53:12;36.99;34.13;51.04;;
40103;Laerm;25814;48.550;9.108;2023-05-10T05:55:38;45.10;34.75;58.10;;
40103;Laerm;25814;48.550;9.108;2023-05-10T05:58:04;41.33;36.69;57.75;;
40103;Laerm;25814;48.550;9.108;2023-05-10T06:00:30;40.17;35.81;53.10;;
40103;Laerm;25814;48.550;9.108;2023-05-10T06:02:56;39.60;34.13;57.46;;
40103;Laerm;25814;48.550;9.108;2023-05-10T06:05:23;41.97;33.33;57.57;;
40103;Laerm;25814;48.550;9.108;2023-05-10T06:07:49;42.58;32.95;67.29;;
40103;Laerm;25814;48.550;9.108;2023-05-10T06:10:15;40.42;32.56;51.66;;
40103;Laerm;25814;48.550;9.108;2023-05-10T06:12:41;42.20;32.89;55.39;;
40103;Laerm;25814;48.550;9.108;2023-05-10T06:15:08;41.76;33.96;52.02;;
40103;Laerm;25814;48.550;9.108;2023-05-10T06:17:35;45.03;33.83;57.56;;
40103;Laerm;25814;48.550;9.108;2023-05-10T06:20:01;43.17;33.71;57.60;;
40103;Laerm;25814;48.550;9.108;2023-05-10T06:22:28;37.36;32.89;47.08;;
40103;Laerm;25814;48.550;9.108;2023-05-10T06:24:54;46.66;34.51;64.31;;
40103;Laerm;25814;48.550;9.108;2023-05-10T06:27:20;36.18;32.19;47.21;;
40103;Laerm;25814;48.550;9.108;2023-05-10T06:29:47;36.22;33.24;51.36;;
40103;Laerm;25814;48.550;9.108;2023-05-10T06:32:13;37.23;33.25;45.19;;
40103;Laerm;25814;48.550;9.108;2023-05-10T06:34:39;34.88;32.39;40.69;;
40103;Laerm;25814;48.550;9.108;2023-05-10T06:37:05;38.88;32.39;49.29;;
40103;Laerm;25814;48.550;9.108;2023-05-10T06:39:31;35.15;32.32;50.12;;
40103;Laerm;25814;48.550;9.108;2023-05-10T06:41:58;40.14;32.20;54.99;;
40103;Laerm;25814;48.550;9.108;2023-05-10T06:44:24;43.27;31.48;62.15;;
40103;Laerm;25814;48.550;9.108;2023-05-10T06:46:50;44.40;32.54;61.46;;
40103;Laerm;25814;48.550;9.108;2023-05-10T06:49:18;46.76;33.25;63.89;;
40103;Laerm;25814;48.550;9.108;2023-05-10T06:51:44;46.68;32.00;63.24;;
40103;Laerm;25814;48.550;9.108;2023-05-10T06:54:10;39.86;33.31;57.09;;
40103;Laerm;25814;48.550;9.108;2023-05-10T06:56:36;39.78;33.21;48.09;;
40103;Laerm;25814;48.550;9.108;2023-05-10T06:59:02;36.96;32.07;49.04;;
40103;Laerm;25814;48.550;9.108;2023-05-10T07:01:29;36.63;32.42;57.54;;
40103;Laerm;25814;48.550;9.108;2023-05-10T07:03:55;39.42;31.27;55.08;;
40103;Laerm;25814;48.550;9.108;2023-05-10T07:06:21;42.10;31.75;57.21;;
40103;Laerm;25814;48.550;9.108;2023-05-10T07:08:48;38.47;31.11;52.56;;
40103;Laerm;25814;48.550;9.108;2023-05-10T07:11:14;40.50;31.82;53.47;;
40103;Laerm;25814;48.550;9.108;2023-05-10T07:13:40;44.20;31.35;61.62;;
40103;Laerm;25814;48.550;9.108;2023-05-10T07:16:10;33.93;30.83;50.77;;
40103;Laerm;25814;48.550;9.108;2023-05-10T07:18:36;36.97;31.38;48.33;;
40103;Laerm;25814;48.550;9.108;2023-05-10T07:21:03;40.30;31.09;58.48;;
40103;Laerm;25814;48.550;9.108;2023-05-10T07:23:29;35.67;32.54;46.37;;
40103;Laerm;25814;48.550;9.108;2023-05-10T07:25:55;35.11;32.93;43.10;;
40103;Laerm;25814;48.550;9.108;2023-05-10T07:28:23;37.42;33.60;49.39;;
40103;Laerm;25814;48.550;9.108;2023-05-10T07:30:50;38.64;33.81;50.02;;
40103;Laerm;25814;48.550;9.108;2023-05-10T07:33:16;37.20;33.49;51.09;;
40103;Laerm;25814;48.550;9.108;2023-05-10T07:35:43;43.50;31.64;59.92;;
40103;Laerm;25814;48.550;9.108;2023-05-10T07:38:09;39.08;32.96;50.16;;
40103;Laerm;25814;48.550;9.108;2023-05-10T07:40:36;35.55;31.62;43.45;;
40103;Laerm;25814;48.550;9.108;2023-05-10T07:43:03;35.63;31.38;46.58;;
40103;Laerm;25814;48.550;9.108;2023-05-10T07:45:30;38.30;30.61;53.16;;
40103;Laerm;25814;48.550;9.108;2023-05-10T07:47:56;42.27;30.96;61.89;;
40103;Laerm;25814;48.550;9.108;2023-05-10T07:50:22;48.84;30.77;60.63;;
40103;Laerm;25814;48.550;9.108;2023-05-10T07:52:48;44.60;30.97;60.12;;
40103;Laerm;25814;48.550;9.108;2023-05-10T07:55:15;35.29;30.15;53.07;;
40103;Laerm;25814;48.550;9.108;2023-05-10T07:57:42;42.02;30.71;57.54;;
40103;Laerm;25814;48.550;9.108;2023-05-10T08:00:08;46.15;31.05;61.59;;
40103;Laerm;25814;48.550;9.108;2023-05-10T08:02:35;44.77;31.84;58.39;;
40103;Laerm;25814;48.550;9.108;2023-05-10T08:05:01;41.39;31.20;60.14;;
40103;Laerm;25814;48.550;9.108;2023-05-10T08:07:28;36.84;31.57;50.90;;
40103;Laerm;25814;48.550;9.108;2023-05-10T08:09:54;35.10;31.43;47.08;;
40103;Laerm;25814;48.550;9.108;2023-05-10T08:12:20;35.68;31.45;47.09;;
40103;Laerm;25814;48.550;9.108;2023-05-10T08:14:47;34.70;31.44;44.69;;
40103;Laerm;25814;48.550;9.108;2023-05-10T08:17:13;35.00;31.63;43.21;;
40103;Laerm;25814;48.550;9.108;2023-05-10T08:19:39;43.92;32.06;61.05;;
40103;Laerm;25814;48.550;9.108;2023-05-10T08:22:05;48.06;32.90;62.79;;
40103;Laerm;25814;48.550;9.108;2023-05-10T08:24:32;48.39;32.89;65.19;;
40103;Laerm;25814;48.550;9.108;2023-05-10T08:27:00;43.41;32.02;64.47;;
40103;Laerm;25814;48.550;9.108;2023-05-10T08:29:26;35.41;31.03;45.60;;
40103;Laerm;25814;48.550;9.108;2023-05-10T08:31:52;40.34;31.25;59.99;;
40103;Laerm;25814;48.550;9.108;2023-05-10T08:34:18;44.54;32.07;67.88;;
40103;Laerm;25814;48.550;9.108;2023-05-10T08:36:44;41.01;30.99;58.10;;
40103;Laerm;25814;48.550;9.108;2023-05-10T08:39:11;49.39;31.15;63.18;;
40103;Laerm;25814;48.550;9.108;2023-05-10T08:41:39;38.02;31.39;51.47;;
40103;Laerm;25814;48.550;9.108;2023-05-10T08:44:07;39.28;31.14;56.36;;
40103;Laerm;25814;48.550;9.108;2023-05-10T08:46:37;45.80;31.44;62.20;;
40103;Laerm;25814;48.550;9.108;2023-05-10T08:49:07;41.59;31.70;56.59;;
40103;Laerm;25814;48.550;9.108;2023-05-10T08:51:36;37.54;31.56;53.75;;
40103;Laerm;25814;48.550;9.108;2023-05-10T08:54:06;42.83;31.33;55.58;;
40103;Laerm;25814;48.550;9.108;2023-05-10T08:56:32;42.17;33.95;54.27;;
40103;Laerm;25814;48.550;9.108;2023-05-10T08:58:58;37.49;30.62;52.06;;
40103;Laerm;25814;48.550;9.108;2023-05-10T09:01:26;49.85;32.31;70.28;;
40103;Laerm;25814;48.550;9.108;2023-05-10T09:03:53;50.16;32.04;63.97;;
40103;Laerm;25814;48.550;9.108;2023-05-10T09:06:20;50.65;31.68;67.08;;
40103;Laerm;25814;48.550;9.108;2023-05-10T09:08:47;52.51;31.36;78.95;;
40103;Laerm;25814;48.550;9.108;2023-05-10T09:11:14;46.23;31.70;61.96;;
40103;Laerm;25814;48.550;9.108;2023-05-10T09:13:41;46.90;31.66;61.08;;
40103;Laerm;25814;48.550;9.108;2023-05-10T09:16:09;42.74;30.45;58.26;;
40103;Laerm;25814;48.550;9.108;2023-05-10T09:18:35;35.11;31.63;45.45;;
40103;Laerm;25814;48.550;9.108;2023-05-10T09:21:02;38.69;31.24;50.32;;
40103;Laerm;25814;48.550;9.108;2023-05-10T09:23:28;36.67;32.56;48.86;;
40103;Laerm;25814;48.550;9.108;2023-05-10T09:26:15;38.92;30.88;56.67;;
40103;Laerm;25814;48.550;9.108;2023-05-10T09:28:58;39.06;32.12;59.42;;
40103;Laerm;25814;48.550;9.108;2023-05-10T09:31:52;44.22;31.85;60.69;;
40103;Laerm;25814;48.550;9.108;2023-05-10T09:34:32;43.20;33.62;61.34;;
40103;Laerm;25814;48.550;9.108;2023-05-10T09:37:02;37.43;32.09;46.15;;
40103;Laerm;25814;48.550;9.108;2023-05-10T09:39:34;42.83;31.65;57.12;;
40103;Laerm;25814;48.550;9.108;2023-05-10T09:42:06;38.42;31.48;55.51;;
40103;Laerm;25814;48.550;9.108;2023-05-10T09:44:33;38.54;32.48;56.30;;
40103;Laerm;25814;48.550;9.108;2023-05-10T09:47:01;47.68;32.46;70.46;;
40103;Laerm;25814;48.550;9.108;2023-05-10T09:49:28;44.16;31.28;58.09;;
40103;Laerm;25814;48.550;9.108;2023-05-10T09:52:06;38.43;30.76;59.06;;
40103;Laerm;25814;48.550;9.108;2023-05-10T09:54:33;51.82;31.51;63.62;;
40103;Laerm;25814;48.550;9.108;2023-05-10T09:57:00;47.95;30.22;61.19;;
40103;Laerm;25814;48.550;9.108;2023-05-10T09:59:28;36.94;30.70;48.32;;
40103;Laerm;25814;48.550;9.108;2023-05-10T10:01:59;37.46;30.91;55.14;;
40103;Laerm;25814;48.550;9.108;2023-05-10T10:04:26;40.37;30.73;53.36;;
40103;Laerm;25814;48.550;9.108;2023-05-10T10:07:12;39.04;30.55;54.68;;
40103;Laerm;25814;48.550;9.108;2023-05-10T10:09:39;34.43;31.11;49.86;;
40103;Laerm;25814;48.550;9.108;2023-05-10T10:12:05;33.90;30.59;45.69;;
40103;Laerm;25814;48.550;9.108;2023-05-10T10:14:32;36.04;30.60;51.03;;
40103;Laerm;25814;48.550;9.108;2023-05-10T10:17:00;33.44;30.39;42.87;;
40103;Laerm;25814;48.550;9.108;2023-05-10T10:19:26;35.90;31.15;47.55;;
40103;Laerm;25814;48.550;9.108;2023-05-10T10:21:53;35.25;31.26;42.58;;
40103;Laerm;25814;48.550;9.108;2023-05-10T10:24:19;35.39;30.84;44.36;;
40103;Laerm;25814;48.550;9.108;2023-05-10T10:26:46;35.85;31.00;52.28;;
40103;Laerm;25814;48.550;9.108;2023-05-10T10:29:26;33.73;30.68;41.43;;
40103;Laerm;25814;48.550;9.108;2023-05-10T10:34:48;43.40;30.88;62.47;;
40103;Laerm;25814;48.550;9.108;2023-05-10T10:37:14;34.53;30.21;53.88;;
40103;Laerm;25814;48.550;9.108;2023-05-10T10:39:40;36.03;31.00;58.89;;
40103;Laerm;25814;48.550;9.108;2023-05-10T10:42:06;34.61;30.60;42.45;;
40103;Laerm;25814;48.550;9.108;2023-05-10T10:44:35;36.18;30.72;51.54;;
40103;Laerm;25814;48.550;9.108;2023-05-10T10:52:33;43.40;31.28;61.05;;
40103;Laerm;25814;48.550;9.108;2023-05-10T10:55:12;50.89;32.38;61.43;;
40103;Laerm;25814;48.550;9.108;2023-05-10T11:00:20;46.17;38.81;59.01;;
40103;Laerm;25814;48.550;9.108;2023-05-10T11:02:51;50.84;40.20;56.40;;
40103;Laerm;25814;48.550;9.108;2023-05-10T11:10:53;47.78;38.88;63.13;;
40103;Laerm;25814;48.550;9.108;2023-05-10T11:13:53;48.19;34.62;63.94;;
40103;Laerm;25814;48.550;9.108;2023-05-10T11:16:28;39.81;34.61;57.11;;
40103;Laerm;25814;48.550;9.108;2023-05-10T11:19:12;43.33;33.78;59.80;;
40103;Laerm;25814;48.550;9.108;2023-05-10T11:22:11;43.79;33.63;55.97;;
40103;Laerm;25814;48.550;9.108;2023-05-10T11:24:38;37.88;32.79;45.93;;
40103;Laerm;25814;48.550;9.108;2023-05-10T11:27:05;38.94;32.30;51.07;;
40103;Laerm;25814;48.550;9.108;2023-05-10T11:29:31;40.39;32.09;58.36;;
40103;Laerm;25814;48.550;9.108;2023-05-10T11:31:59;43.48;32.25;64.02;;
40103;Laerm;25814;48.550;9.108;2023-05-10T11:34:28;47.50;31.67;66.09;;
40103;Laerm;25814;48.550;9.108;2023-05-10T11:37:00;45.08;32.52;60.02;;
40103;Laerm;25814;48.550;9.108;2023-05-10T11:39:31;39.09;33.53;49.67;;
40103;Laerm;25814;48.550;9.108;2023-05-10T11:41:58;45.75;34.68;64.55;;
40103;Laerm;25814;48.550;9.108;2023-05-10T11:44:32;42.27;33.78;55.51;;
40103;Laerm;25814;48.550;9.108;2023-05-10T11:47:02;46.87;38.56;61.81;;
40103;Laerm;25814;48.550;9.108;2023-05-10T11:49:28;45.69;33.97;63.62;;
40103;Laerm;25814;48.550;9.108;2023-05-10T11:52:07;41.34;33.79;54.86;;
40103;Laerm;25814;48.550;9.108;2023-05-10T11:54:33;39.10;33.74;51.20;;
40103;Laerm;25814;48.550;9.108;2023-05-10T11:57:01;44.94;33.37;61.67;;
40103;Laerm;25814;48.550;9.108;2023-05-10T11:59:27;38.11;33.12;46.94;;
40103;Laerm;25814;48.550;9.108;2023-05-10T12:01:54;42.45;31.99;59.86;;
40103;Laerm;25814;48.550;9.108;2023-05-10T12:04:21;42.05;31.84;54.13;;
40103;Laerm;25814;48.550;9.108;2023-05-10T12:06:47;37.87;31.58;48.55;;
40103;Laerm;25814;48.550;9.108;2023-05-10T12:09:14;49.33;32.08;63.28;;
40103;Laerm;25814;48.550;9.108;2023-05-10T12:11:40;36.37;31.47;49.21;;
40103;Laerm;25814;48.550;9.108;2023-05-10T12:14:08;46.52;31.32;59.53;;
40103;Laerm;25814;48.550;9.108;2023-05-10T12:16:35;41.27;32.50;55.15;;
40103;Laerm;25814;48.550;9.108;2023-05-10T12:19:01;39.64;31.28;50.98;;
40103;Laerm;25814;48.550;9.108;2023-05-10T12:21:29;41.60;33.32;57.13;;
40103;Laerm;25814;48.550;9.108;2023-05-10T12:24:02;41.14;33.00;55.23;;
40103;Laerm;25814;48.550;9.108;2023-05-10T12:26:29;37.38;32.02;51.42;;
40103;Laerm;25814;48.550;9.108;2023-05-10T12:29:12;34.17;31.64;42.59;;
40103;Laerm;25814;48.550;9.108;2023-05-10T12:31:56;37.51;31.48;55.35;;
40103;Laerm;25814;48.550;9.108;2023-05-10T12:34:30;43.94;33.64;59.18;;
40103;Laerm;25814;48.550;9.108;2023-05-10T12:36:56;39.76;33.32;53.25;;
40103;Laerm;25814;48.550;9.108;2023-05-10T12:39:23;46.33;35.33;59.22;;
40103;Laerm;25814;48.550;9.108;2023-05-10T12:41:49;41.19;31.92;56.63;;
40103;Laerm;25814;48.550;9.108;2023-05-10T12:44:15;45.17;31.84;59.37;;
40103;Laerm;25814;48.550;9.108;2023-05-10T12:46:42;45.20;32.25;58.82;;
40103;Laerm;25814;48.550;9.108;2023-05-10T12:49:08;48.50;33.68;64.15;;
40103;Laerm;25814;48.550;9.108;2023-05-10T12:51:35;50.05;31.79;63.62;;
40103;Laerm;25814;48.550;9.108;2023-05-10T12:54:02;49.38;31.13;63.93;;
40103;Laerm;25814;48.550;9.108;2023-05-10T12:56:29;46.70;32.20;64.69;;
40103;Laerm;25814;48.550;9.108;2023-05-10T12:58:55;46.95;31.77;68.58;;
40103;Laerm;25814;48.550;9.108;2023-05-10T13:01:21;41.51;31.10;57.98;;
40103;Laerm;25814;48.550;9.108;2023-05-10T13:03:47;48.92;32.29;64.05;;
40103;Laerm;25814;48.550;9.108;2023-05-10T13:06:14;48.40;31.95;63.20;;
40103;Laerm;25814;48.550;9.108;2023-05-10T13:08:40;35.39;31.48;45.53;;
40103;Laerm;25814;48.550;9.108;2023-05-10T13:11:07;38.62;31.07;60.46;;
40103;Laerm;25814;48.550;9.108;2023-05-10T13:13:33;36.22;30.53;61.18;;
40103;Laerm;25814;48.550;9.108;2023-05-10T13:15:59;42.20;30.92;57.67;;
40103;Laerm;25814;48.550;9.108;2023-05-10T13:18:26;37.50;30.72;55.90;;
40103;Laerm;25814;48.550;9.108;2023-05-10T13:20:53;41.39;31.27;59.99;;
40103;Laerm;25814;48.550;9.108;2023-05-10T13:23:21;44.93;31.22;60.19;;
40103;Laerm;25814;48.550;9.108;2023-05-10T13:25:47;34.72;30.19;45.92;;
40103;Laerm;25814;48.550;9.108;2023-05-10T13:28:13;38.51;30.70;52.69;;
40103;Laerm;25814;48.550;9.108;2023-05-10T13:30:39;38.94;32.22;50.97;;
40103;Laerm;25814;48.550;9.108;2023-05-10T13:33:05;38.87;31.39;53.54;;
40103;Laerm;25814;48.550;9.108;2023-05-10T13:35:32;44.32;31.73;63.08;;
40103;Laerm;25814;48.550;9.108;2023-05-10T13:37:58;45.49;31.42;63.86;;
40103;Laerm;25814;48.550;9.108;2023-05-10T13:40:24;38.41;31.65;50.70;;
40103;Laerm;25814;48.550;9.108;2023-05-10T13:42:50;37.41;31.35;47.33;;
40103;Laerm;25814;48.550;9.108;2023-05-10T13:45:17;43.87;30.88;58.05;;
40103;Laerm;25814;48.550;9.108;2023-05-10T13:47:43;48.36;31.97;62.67;;
40103;Laerm;25814;48.550;9.108;2023-05-10T13:50:09;34.34;30.71;45.85;;
40103;Laerm;25814;48.550;9.108;2023-05-10T13:52:35;36.28;31.05;57.72;;
40103;Laerm;25814;48.550;9.108;2023-05-10T13:55:02;43.45;30.56;62.01;;
40103;Laerm;25814;48.550;9.108;2023-05-10T13:57:28;44.60;31.62;56.40;;
40103;Laerm;25814;48.550;9.108;2023-05-10T13:59:55;41.47;32.78;53.32;;
40103;Laerm;25814;48.550;9.108;2023-05-10T14:02:22;37.45;32.48;48.38;;
40103;Laerm;25814;48.550;9.108;2023-05-10T14:04:49;37.50;30.84;48.57;;
40103;Laerm;25814;48.550;9.108;2023-05-10T14:07:16;41.67;31.20;56.16;;
40103;Laerm;25814;48.550;9.108;2023-05-10T14:09:43;37.00;31.99;47.07;;
40103;Laerm;25814;48.550;9.108;2023-05-10T14:12:09;36.69;31.16;47.89;;
40103;Laerm;25814;48.550;9.108;2023-05-10T14:14:35;44.10;30.76;63.14;;
40103;Laerm;25814;48.550;9.108;2023-05-10T14:17:01;41.20;30.55;59.84;;